sensor_id;sensor_type;location;lat;lon;timestamp;temperature;humidity
3380;DHT22;1703;51.964;7.642;2023-06-19T00:01:11;24.90;97.20
3380;DHT22;1703;51.964;7.642;2023-06-19T00:03:40;24.90;97.30
3380;DHT22;1703;51.964;7.642;2023-06-19T00:06:07;25.00;97.50
3380;DHT22;1703;51.964;7.642;2023-06-19T00:08:34;25.00;97.60
3380;DHT22;1703;51.964;7.642;2023-06-19T00:11:02;25.00;97.70
3380;DHT22;1703;51.964;7.642;2023-06-19T00:13:28;25.00;97.80
3380;DHT22;1703;51.964;7.642;2023-06-19T00:15:55;24.90;97.90
3380;DHT22;1703;51.964;7.642;2023-06-19T00:18:25;24.90;98.10
3380;DHT22;1703;51.964;7.642;2023-06-19T00:20:53;24.90;98.20
3380;DHT22;1703;51.964;7.642;2023-06-19T00:23:21;24.90;98.20
3380;DHT22;1703;51.964;7.642;2023-06-19T00:25:48;24.90;98.30
3380;DHT22;1703;51.964;7.642;2023-06-19T00:28:15;24.80;98.40
3380;DHT22;1703;51.964;7.642;2023-06-19T00:30:45;24.90;98.50
3380;DHT22;1703;51.964;7.642;2023-06-19T00:33:13;24.80;98.70
3380;DHT22;1703;51.964;7.642;2023-06-19T00:35:40;24.80;98.80
3380;DHT22;1703;51.964;7.642;2023-06-19T00:38:08;24.80;98.90
3380;DHT22;1703;51.964;7.642;2023-06-19T00:40:35;24.70;99.00
3380;DHT22;1703;51.964;7.642;2023-06-19T00:43:02;24.70;99.10
3380;DHT22;1703;51.964;7.642;2023-06-19T00:45:29;24.70;99.30
3380;DHT22;1703;51.964;7.642;2023-06-19T00:47:58;24.70;99.50
3380;DHT22;1703;51.964;7.642;2023-06-19T00:50:25;24.70;99.70
3380;DHT22;1703;51.964;7.642;2023-06-19T00:52:53;24.70;99.90
3380;DHT22;1703;51.964;7.642;2023-06-19T00:55:22;24.70;99.90
3380;DHT22;1703;51.964;7.642;2023-06-19T00:57:49;24.70;99.90
3380;DHT22;1703;51.964;7.642;2023-06-19T01:00:18;24.70;99.90
3380;DHT22;1703;51.964;7.642;2023-06-19T01:02:45;24.70;99.90
3380;DHT22;1703;51.964;7.642;2023-06-19T01:05:13;24.70;99.90
3380;DHT22;1703;51.964;7.642;2023-06-19T01:07:44;24.70;99.90
3380;DHT22;1703;51.964;7.642;2023-06-19T01:10:15;24.60;99.90
3380;DHT22;1703;51.964;7.642;2023-06-19T01:12:46;24.70;99.90
3380;DHT22;1703;51.964;7.642;2023-06-19T01:15:18;24.70;99.90
3380;DHT22;1703;51.964;7.642;2023-06-19T01:17:46;24.60;99.90
3380;DHT22;1703;51.964;7.642;2023-06-19T01:20:14;24.70;99.90
3380;DHT22;1703;51.964;7.642;2023-06-19T01:22:42;24.70;99.90
3380;DHT22;1703;51.964;7.642;2023-06-19T01:25:10;24.60;99.90
3380;DHT22;1703;51.964;7.642;2023-06-19T01:27:39;24.60;99.90
3380;DHT22;1703;51.964;7.642;2023-06-19T01:30:07;24.60;99.90
3380;DHT22;1703;51.964;7.642;2023-06-19T01:32:41;24.60;99.90
3380;DHT22;1703;51.964;7.642;2023-06-19T01:35:12;24.60;99.90
3380;DHT22;1703;51.964;7.642;2023-06-19T01:37:40;24.50;99.90
3380;DHT22;1703;51.964;7.642;2023-06-19T01:40:10;24.50;99.90
3380;DHT22;1703;51.964;7.642;2023-06-19T01:42:38;24.50;99.90
3380;DHT22;1703;51.964;7.642;2023-06-19T01:45:07;24.50;99.90
3380;DHT22;1703;51.964;7.642;2023-06-19T01:47:35;24.40;99.90
3380;DHT22;1703;51.964;7.642;2023-06-19T01:50:02;24.30;99.90
3380;DHT22;1703;51.964;7.642;2023-06-19T01:52:29;24.30;99.90
3380;DHT22;1703;51.964;7.642;2023-06-19T01:54:56;24.30;99.90
3380;DHT22;1703;51.964;7.642;2023-06-19T01:57:24;24.30;99.90
3380;DHT22;1703;51.964;7.642;2023-06-19T01:59:51;24.20;99.90
3380;DHT22;1703;51.964;7.642;2023-06-19T02:02:18;24.30;99.90
3380;DHT22;1703;51.964;7.642;2023-06-19T02:04:45;24.20;99.90
3380;DHT22;1703;51.964;7.642;2023-06-19T02:07:11;24.20;99.90
3380;DHT22;1703;51.964;7.642;2023-06-19T02:09:38;24.20;99.90
3380;DHT22;1703;51.964;7.642;2023-06-19T02:12:07;24.20;99.90
3380;DHT22;1703;51.964;7.642;2023-06-19T02:14:36;24.20;99.90
3380;DHT22;1703;51.964;7.642;2023-06-19T02:17:02;24.20;99.90
3380;DHT22;1703;51.964;7.642;2023-06-19T02:19:29;24.20;99.90
3380;DHT22;1703;51.964;7.642;2023-06-19T02:21:56;24.20;99.90
3380;DHT22;1703;51.964;7.642;2023-06-19T02:24:25;24.20;99.90
3380;DHT22;1703;51.964;7.642;2023-06-19T02:26:52;24.20;99.90
3380;DHT22;1703;51.964;7.642;2023-06-19T02:29:19;24.20;99.90
3380;DHT22;1703;51.964;7.642;2023-06-19T02:31:47;24.20;99.90
3380;DHT22;1703;51.964;7.642;2023-06-19T02:34:15;24.20;99.90
3380;DHT22;1703;51.964;7.642;2023-06-19T02:36:42;24.10;99.90
3380;DHT22;1703;51.964;7.642;2023-06-19T02:39:09;24.10;99.90
3380;DHT22;1703;51.964;7.642;2023-06-19T02:41:36;24.10;99.90
3380;DHT22;1703;51.964;7.642;2023-06-19T02:44:03;24.10;99.90
3380;DHT22;1703;51.964;7.642;2023-06-19T02:46:30;24.10;99.90
3380;DHT22;1703;51.964;7.642;2023-06-19T02:48:58;24.10;99.90
3380;DHT22;1703;51.964;7.642;2023-06-19T02:51:26;24.10;99.90
3380;DHT22;1703;51.964;7.642;2023-06-19T02:53:53;24.00;99.90
3380;DHT22;1703;51.964;7.642;2023-06-19T02:56:21;24.00;99.90
3380;DHT22;1703;51.964;7.642;2023-06-19T02:58:48;24.00;99.90
3380;DHT22;1703;51.964;7.642;2023-06-19T03:01:15;24.00;99.90
3380;DHT22;1703;51.964;7.642;2023-06-19T03:03:44;24.00;99.90
3380;DHT22;1703;51.964;7.642;2023-06-19T03:06:13;24.00;99.90
3380;DHT22;1703;51.964;7.642;2023-06-19T03:08:40;24.00;99.90
3380;DHT22;1703;51.964;7.642;2023-06-19T03:11:07;24.00;99.90
3380;DHT22;1703;51.964;7.642;2023-06-19T03:13:44;24.00;99.90
3380;DHT22;1703;51.964;7.642;2023-06-19T03:16:11;24.00;99.90
3380;DHT22;1703;51.964;7.642;2023-06-19T03:18:38;24.00;99.90
3380;DHT22;1703;51.964;7.642;2023-06-19T03:21:05;24.00;99.90
3380;DHT22;1703;51.964;7.642;2023-06-19T03:23:33;24.00;99.90
3380;DHT22;1703;51.964;7.642;2023-06-19T03:26:00;24.00;99.90
3380;DHT22;1703;51.964;7.642;2023-06-19T03:28:28;24.00;99.90
3380;DHT22;1703;51.964;7.642;2023-06-19T03:30:56;24.00;99.90
3380;DHT22;1703;51.964;7.642;2023-06-19T03:33:23;24.00;99.90
3380;DHT22;1703;51.964;7.642;2023-06-19T03:35:51;23.90;99.90
3380;DHT22;1703;51.964;7.642;2023-06-19T03:38:38;23.90;99.90
3380;DHT22;1703;51.964;7.642;2023-06-19T03:41:07;24.00;99.90
3380;DHT22;1703;51.964;7.642;2023-06-19T03:43:35;23.90;99.90
3380;DHT22;1703;51.964;7.642;2023-06-19T03:46:03;23.90;99.90
3380;DHT22;1703;51.964;7.642;2023-06-19T03:48:30;23.90;99.90
3380;DHT22;1703;51.964;7.642;2023-06-19T03:50:57;23.80;99.90
3380;DHT22;1703;51.964;7.642;2023-06-19T03:53:23;23.80;99.90
3380;DHT22;1703;51.964;7.642;2023-06-19T03:55:52;23.80;99.90
3380;DHT22;1703;51.964;7.642;2023-06-19T03:58:18;23.80;99.90
3380;DHT22;1703;51.964;7.642;2023-06-19T04:00:45;23.80;99.90
3380;DHT22;1703;51.964;7.642;2023-06-19T04:03:12;23.80;99.90
3380;DHT22;1703;51.964;7.642;2023-06-19T04:05:39;23.70;99.90
3380;DHT22;1703;51.964;7.642;2023-06-19T04:08:07;23.70;99.90
3380;DHT22;1703;51.964;7.642;2023-06-19T04:10:34;23.70;99.90
3380;DHT22;1703;51.964;7.642;2023-06-19T04:13:02;23.70;99.90
3380;DHT22;1703;51.964;7.642;2023-06-19T04:15:30;23.70;99.90
3380;DHT22;1703;51.964;7.642;2023-06-19T04:17:59;23.60;99.90
3380;DHT22;1703;51.964;7.642;2023-06-19T04:20:26;23.50;99.90
3380;DHT22;1703;51.964;7.642;2023-06-19T04:22:53;23.40;99.90
3380;DHT22;1703;51.964;7.642;2023-06-19T04:25:19;23.20;99.90
3380;DHT22;1703;51.964;7.642;2023-06-19T04:27:46;23.20;99.90
3380;DHT22;1703;51.964;7.642;2023-06-19T04:30:15;23.10;99.90
3380;DHT22;1703;51.964;7.642;2023-06-19T04:32:42;23.10;99.90
3380;DHT22;1703;51.964;7.642;2023-06-19T04:35:09;23.10;99.90
3380;DHT22;1703;51.964;7.642;2023-06-19T04:37:36;23.10;99.90
3380;DHT22;1703;51.964;7.642;2023-06-19T04:40:04;23.00;99.90
3380;DHT22;1703;51.964;7.642;2023-06-19T04:42:32;22.90;99.90
3380;DHT22;1703;51.964;7.642;2023-06-19T04:44:59;22.90;99.90
3380;DHT22;1703;51.964;7.642;2023-06-19T04:47:27;23.00;99.90
3380;DHT22;1703;51.964;7.642;2023-06-19T04:49:54;23.00;99.90
3380;DHT22;1703;51.964;7.642;2023-06-19T04:52:21;23.00;99.90
3380;DHT22;1703;51.964;7.642;2023-06-19T04:54:48;23.10;99.90
3380;DHT22;1703;51.964;7.642;2023-06-19T04:57:15;23.00;99.90
3380;DHT22;1703;51.964;7.642;2023-06-19T04:59:42;23.00;99.90
3380;DHT22;1703;51.964;7.642;2023-06-19T05:02:09;22.90;99.90
3380;DHT22;1703;51.964;7.642;2023-06-19T05:04:38;22.90;99.90
3380;DHT22;1703;51.964;7.642;2023-06-19T05:07:08;22.90;99.90
3380;DHT22;1703;51.964;7.642;2023-06-19T05:09:36;22.90;99.90
3380;DHT22;1703;51.964;7.642;2023-06-19T05:12:03;22.90;99.90
3380;DHT22;1703;51.964;7.642;2023-06-19T05:14:30;22.90;99.90
3380;DHT22;1703;51.964;7.642;2023-06-19T05:16:57;22.90;99.90
3380;DHT22;1703;51.964;7.642;2023-06-19T05:19:23;22.90;99.90
3380;DHT22;1703;51.964;7.642;2023-06-19T05:21:51;22.90;99.90
3380;DHT22;1703;51.964;7.642;2023-06-19T05:24:18;22.90;99.90
3380;DHT22;1703;51.964;7.642;2023-06-19T05:26:45;22.90;99.90
3380;DHT22;1703;51.964;7.642;2023-06-19T05:29:12;22.80;99.90
3380;DHT22;1703;51.964;7.642;2023-06-19T05:31:38;22.80;99.90
3380;DHT22;1703;51.964;7.642;2023-06-19T05:34:06;22.70;99.90
3380;DHT22;1703;51.964;7.642;2023-06-19T05:36:33;22.60;99.90
3380;DHT22;1703;51.964;7.642;2023-06-19T05:39:01;22.60;99.90
3380;DHT22;1703;51.964;7.642;2023-06-19T05:41:28;22.60;99.90
3380;DHT22;1703;51.964;7.642;2023-06-19T05:43:57;22.70;99.90
3380;DHT22;1703;51.964;7.642;2023-06-19T05:46:23;22.60;99.90
3380;DHT22;1703;51.964;7.642;2023-06-19T05:48:50;22.60;99.90
3380;DHT22;1703;51.964;7.642;2023-06-19T05:51:18;22.50;99.90
3380;DHT22;1703;51.964;7.642;2023-06-19T05:53:44;22.50;99.90
3380;DHT22;1703;51.964;7.642;2023-06-19T05:56:13;22.50;99.90
3380;DHT22;1703;51.964;7.642;2023-06-19T05:58:40;22.50;99.90
3380;DHT22;1703;51.964;7.642;2023-06-19T06:01:07;22.60;99.90
3380;DHT22;1703;51.964;7.642;2023-06-19T06:03:35;22.70;99.90
3380;DHT22;1703;51.964;7.642;2023-06-19T06:06:01;22.70;99.90
3380;DHT22;1703;51.964;7.642;2023-06-19T06:08:29;22.70;99.90
3380;DHT22;1703;51.964;7.642;2023-06-19T06:10:56;22.80;99.90
3380;DHT22;1703;51.964;7.642;2023-06-19T06:13:24;22.90;99.90
3380;DHT22;1703;51.964;7.642;2023-06-19T06:15:51;22.80;99.90
3380;DHT22;1703;51.964;7.642;2023-06-19T06:18:18;22.80;99.90
3380;DHT22;1703;51.964;7.642;2023-06-19T06:20:44;22.70;99.90
3380;DHT22;1703;51.964;7.642;2023-06-19T06:23:11;22.80;99.90
3380;DHT22;1703;51.964;7.642;2023-06-19T06:25:38;22.80;99.90
3380;DHT22;1703;51.964;7.642;2023-06-19T06:28:05;22.80;99.90
3380;DHT22;1703;51.964;7.642;2023-06-19T06:30:33;22.70;99.90
3380;DHT22;1703;51.964;7.642;2023-06-19T06:33:00;22.80;99.90
3380;DHT22;1703;51.964;7.642;2023-06-19T06:35:26;22.80;99.90
3380;DHT22;1703;51.964;7.642;2023-06-19T06:37:54;22.80;99.90
3380;DHT22;1703;51.964;7.642;2023-06-19T06:40:20;22.80;99.90
3380;DHT22;1703;51.964;7.642;2023-06-19T06:42:47;22.80;99.90
3380;DHT22;1703;51.964;7.642;2023-06-19T06:45:15;22.80;99.90
3380;DHT22;1703;51.964;7.642;2023-06-19T06:47:43;22.90;99.90
3380;DHT22;1703;51.964;7.642;2023-06-19T06:50:10;23.00;99.90
3380;DHT22;1703;51.964;7.642;2023-06-19T06:52:37;23.00;99.90
3380;DHT22;1703;51.964;7.642;2023-06-19T06:55:05;22.90;99.90
3380;DHT22;1703;51.964;7.642;2023-06-19T06:57:31;22.90;99.90
3380;DHT22;1703;51.964;7.642;2023-06-19T06:59:58;22.90;99.90
3380;DHT22;1703;51.964;7.642;2023-06-19T07:02:25;22.90;99.90
3380;DHT22;1703;51.964;7.642;2023-06-19T07:04:53;22.80;99.90
3380;DHT22;1703;51.964;7.642;2023-06-19T07:07:20;22.80;99.90
3380;DHT22;1703;51.964;7.642;2023-06-19T07:09:47;22.70;99.90
3380;DHT22;1703;51.964;7.642;2023-06-19T07:12:14;22.80;99.90
3380;DHT22;1703;51.964;7.642;2023-06-19T07:14:41;22.80;99.90
3380;DHT22;1703;51.964;7.642;2023-06-19T07:17:07;22.70;99.90
3380;DHT22;1703;51.964;7.642;2023-06-19T07:19:34;22.80;99.90
3380;DHT22;1703;51.964;7.642;2023-06-19T07:22:03;22.80;99.90
3380;DHT22;1703;51.964;7.642;2023-06-19T07:24:30;22.90;99.90
3380;DHT22;1703;51.964;7.642;2023-06-19T07:26:56;22.90;99.90
3380;DHT22;1703;51.964;7.642;2023-06-19T07:29:23;22.90;99.90
3380;DHT22;1703;51.964;7.642;2023-06-19T07:31:51;22.90;99.90
3380;DHT22;1703;51.964;7.642;2023-06-19T07:34:17;23.00;99.90
3380;DHT22;1703;51.964;7.642;2023-06-19T07:36:44;23.00;99.90
3380;DHT22;1703;51.964;7.642;2023-06-19T07:39:12;23.00;99.90
3380;DHT22;1703;51.964;7.642;2023-06-19T07:41:39;23.10;99.90
3380;DHT22;1703;51.964;7.642;2023-06-19T07:44:06;23.20;99.90
3380;DHT22;1703;51.964;7.642;2023-06-19T07:46:33;23.20;99.90
3380;DHT22;1703;51.964;7.642;2023-06-19T07:49:00;23.20;99.90
3380;DHT22;1703;51.964;7.642;2023-06-19T07:51:26;23.20;99.90
3380;DHT22;1703;51.964;7.642;2023-06-19T07:53:53;23.20;99.90
3380;DHT22;1703;51.964;7.642;2023-06-19T07:56:21;23.20;99.90
3380;DHT22;1703;51.964;7.642;2023-06-19T07:58:48;23.30;99.90
3380;DHT22;1703;51.964;7.642;2023-06-19T08:01:15;23.30;99.90
3380;DHT22;1703;51.964;7.642;2023-06-19T08:03:45;23.30;99.90
3380;DHT22;1703;51.964;7.642;2023-06-19T08:06:12;23.30;99.90
3380;DHT22;1703;51.964;7.642;2023-06-19T08:08:39;23.30;99.90
3380;DHT22;1703;51.964;7.642;2023-06-19T08:11:06;23.30;99.90
3380;DHT22;1703;51.964;7.642;2023-06-19T08:13:34;23.30;99.90
3380;DHT22;1703;51.964;7.642;2023-06-19T08:16:01;23.40;99.90
3380;DHT22;1703;51.964;7.642;2023-06-19T08:18:28;23.60;99.90
3380;DHT22;1703;51.964;7.642;2023-06-19T08:20:54;23.60;99.90
3380;DHT22;1703;51.964;7.642;2023-06-19T08:23:21;23.60;99.90
3380;DHT22;1703;51.964;7.642;2023-06-19T08:25:48;23.60;99.90
3380;DHT22;1703;51.964;7.642;2023-06-19T08:28:16;23.50;99.90
3380;DHT22;1703;51.964;7.642;2023-06-19T08:30:45;23.40;99.90
3380;DHT22;1703;51.964;7.642;2023-06-19T08:33:13;23.30;99.90
3380;DHT22;1703;51.964;7.642;2023-06-19T08:35:40;23.20;99.90
3380;DHT22;1703;51.964;7.642;2023-06-19T08:38:07;23.20;99.90
3380;DHT22;1703;51.964;7.642;2023-06-19T08:40:34;23.30;99.90
3380;DHT22;1703;51.964;7.642;2023-06-19T08:43:00;23.20;99.90
3380;DHT22;1703;51.964;7.642;2023-06-19T08:45:27;23.20;99.90
3380;DHT22;1703;51.964;7.642;2023-06-19T08:47:59;23.30;99.90
3380;DHT22;1703;51.964;7.642;2023-06-19T08:50:28;23.30;99.90
3380;DHT22;1703;51.964;7.642;2023-06-19T08:52:56;23.30;99.90
3380;DHT22;1703;51.964;7.642;2023-06-19T08:55:23;23.30;99.90
3380;DHT22;1703;51.964;7.642;2023-06-19T08:57:51;23.40;99.90
3380;DHT22;1703;51.964;7.642;2023-06-19T09:00:23;23.30;99.90
3380;DHT22;1703;51.964;7.642;2023-06-19T09:02:51;23.30;99.90
3380;DHT22;1703;51.964;7.642;2023-06-19T09:05:19;23.30;99.90
3380;DHT22;1703;51.964;7.642;2023-06-19T09:07:55;23.30;99.90
3380;DHT22;1703;51.964;7.642;2023-06-19T09:10:22;23.40;99.90
3380;DHT22;1703;51.964;7.642;2023-06-19T09:12:59;23.50;99.90
3380;DHT22;1703;51.964;7.642;2023-06-19T09:15:30;23.50;99.90
3380;DHT22;1703;51.964;7.642;2023-06-19T09:18:05;23.60;99.90
3380;DHT22;1703;51.964;7.642;2023-06-19T09:20:37;23.60;99.90
3380;DHT22;1703;51.964;7.642;2023-06-19T09:23:04;23.60;99.90
3380;DHT22;1703;51.964;7.642;2023-06-19T09:25:31;23.70;99.90
3380;DHT22;1703;51.964;7.642;2023-06-19T09:27:58;23.80;99.90
3380;DHT22;1703;51.964;7.642;2023-06-19T09:30:24;23.90;99.90
3380;DHT22;1703;51.964;7.642;2023-06-19T09:32:51;24.10;99.90
3380;DHT22;1703;51.964;7.642;2023-06-19T09:35:18;24.00;99.90
3380;DHT22;1703;51.964;7.642;2023-06-19T09:37:47;24.10;99.90
3380;DHT22;1703;51.964;7.642;2023-06-19T09:40:15;24.10;99.90
3380;DHT22;1703;51.964;7.642;2023-06-19T09:42:43;24.00;99.90
3380;DHT22;1703;51.964;7.642;2023-06-19T09:45:24;24.00;99.90
3380;DHT22;1703;51.964;7.642;2023-06-19T09:47:52;23.90;99.90
3380;DHT22;1703;51.964;7.642;2023-06-19T09:50:23;23.80;99.90
3380;DHT22;1703;51.964;7.642;2023-06-19T09:52:55;23.80;99.90
3380;DHT22;1703;51.964;7.642;2023-06-19T09:55:24;23.80;99.90
3380;DHT22;1703;51.964;7.642;2023-06-19T09:57:54;23.90;99.90
3380;DHT22;1703;51.964;7.642;2023-06-19T10:00:21;24.00;99.90
3380;DHT22;1703;51.964;7.642;2023-06-19T10:02:52;24.20;99.90
3380;DHT22;1703;51.964;7.642;2023-06-19T10:05:28;24.10;99.90
3380;DHT22;1703;51.964;7.642;2023-06-19T10:07:57;24.10;99.90
3380;DHT22;1703;51.964;7.642;2023-06-19T10:10:26;24.00;99.90
3380;DHT22;1703;51.964;7.642;2023-06-19T10:12:55;24.00;99.90
3380;DHT22;1703;51.964;7.642;2023-06-19T10:15:23;24.10;99.90
3380;DHT22;1703;51.964;7.642;2023-06-19T10:17:52;24.20;99.90
3380;DHT22;1703;51.964;7.642;2023-06-19T10:20:22;24.10;99.90
3380;DHT22;1703;51.964;7.642;2023-06-19T10:22:55;24.10;99.90
3380;DHT22;1703;51.964;7.642;2023-06-19T10:25:27;24.10;99.90
3380;DHT22;1703;51.964;7.642;2023-06-19T10:27:54;24.20;99.90
3380;DHT22;1703;51.964;7.642;2023-06-19T10:30:21;24.40;99.90
3380;DHT22;1703;51.964;7.642;2023-06-19T10:32:48;24.70;99.90
3380;DHT22;1703;51.964;7.642;2023-06-19T10:35:17;24.90;99.90
3380;DHT22;1703;51.964;7.642;2023-06-19T10:37:47;25.00;99.90
3380;DHT22;1703;51.964;7.642;2023-06-19T10:40:14;25.10;99.90
3380;DHT22;1703;51.964;7.642;2023-06-19T10:42:42;24.90;99.90
3380;DHT22;1703;51.964;7.642;2023-06-19T10:45:10;24.90;99.90
3380;DHT22;1703;51.964;7.642;2023-06-19T10:47:39;24.90;99.90
3380;DHT22;1703;51.964;7.642;2023-06-19T10:50:10;24.90;99.90
3380;DHT22;1703;51.964;7.642;2023-06-19T10:52:40;24.80;99.90
3380;DHT22;1703;51.964;7.642;2023-06-19T10:55:08;24.60;99.90
3380;DHT22;1703;51.964;7.642;2023-06-19T10:57:35;24.40;99.90
3380;DHT22;1703;51.964;7.642;2023-06-19T11:00:05;24.50;99.90
3380;DHT22;1703;51.964;7.642;2023-06-19T11:02:37;24.50;99.90
3380;DHT22;1703;51.964;7.642;2023-06-19T11:05:05;24.60;99.90
3380;DHT22;1703;51.964;7.642;2023-06-19T11:07:37;24.50;99.90
3380;DHT22;1703;51.964;7.642;2023-06-19T11:10:05;24.60;99.90
3380;DHT22;1703;51.964;7.642;2023-06-19T11:12:33;24.50;99.90
3380;DHT22;1703;51.964;7.642;2023-06-19T11:15:04;24.50;99.90
3380;DHT22;1703;51.964;7.642;2023-06-19T11:17:32;24.50;99.90
3380;DHT22;1703;51.964;7.642;2023-06-19T11:19:59;24.60;99.90
3380;DHT22;1703;51.964;7.642;2023-06-19T11:25:08;25.00;99.90
3380;DHT22;1703;51.964;7.642;2023-06-19T11:27:38;25.10;99.90
3380;DHT22;1703;51.964;7.642;2023-06-19T11:30:07;25.20;99.90
3380;DHT22;1703;51.964;7.642;2023-06-19T11:32:36;25.20;99.90
3380;DHT22;1703;51.964;7.642;2023-06-19T11:35:08;25.30;99.90
3380;DHT22;1703;51.964;7.642;2023-06-19T11:37:37;25.30;99.90
3380;DHT22;1703;51.964;7.642;2023-06-19T11:40:04;25.30;99.90
3380;DHT22;1703;51.964;7.642;2023-06-19T11:42:45;25.10;99.90
3380;DHT22;1703;51.964;7.642;2023-06-19T11:45:14;25.10;99.90
3380;DHT22;1703;51.964;7.642;2023-06-19T11:47:42;25.20;99.90
3380;DHT22;1703;51.964;7.642;2023-06-19T11:50:10;25.40;99.90
3380;DHT22;1703;51.964;7.642;2023-06-19T11:52:37;25.70;99.90
3380;DHT22;1703;51.964;7.642;2023-06-19T11:55:04;25.70;99.90
3380;DHT22;1703;51.964;7.642;2023-06-19T11:57:31;25.80;99.90
3380;DHT22;1703;51.964;7.642;2023-06-19T11:59:58;25.90;99.90
3380;DHT22;1703;51.964;7.642;2023-06-19T12:02:26;25.90;99.90
3380;DHT22;1703;51.964;7.642;2023-06-19T12:04:53;25.90;99.90
3380;DHT22;1703;51.964;7.642;2023-06-19T12:07:20;25.90;99.90
3380;DHT22;1703;51.964;7.642;2023-06-19T12:09:47;25.90;99.90
3380;DHT22;1703;51.964;7.642;2023-06-19T12:12:13;25.90;99.90
3380;DHT22;1703;51.964;7.642;2023-06-19T12:14:40;26.00;99.90
3380;DHT22;1703;51.964;7.642;2023-06-19T12:17:07;25.90;99.90
3380;DHT22;1703;51.964;7.642;2023-06-19T12:19:35;25.90;99.90
3380;DHT22;1703;51.964;7.642;2023-06-19T12:22:03;26.10;99.90
3380;DHT22;1703;51.964;7.642;2023-06-19T12:24:30;26.00;99.90
3380;DHT22;1703;51.964;7.642;2023-06-19T12:26:57;26.00;99.90
3380;DHT22;1703;51.964;7.642;2023-06-19T12:29:24;25.90;99.90
3380;DHT22;1703;51.964;7.642;2023-06-19T12:31:51;26.00;99.90
3380;DHT22;1703;51.964;7.642;2023-06-19T12:34:18;26.00;99.90
3380;DHT22;1703;51.964;7.642;2023-06-19T12:36:47;26.20;99.90
3380;DHT22;1703;51.964;7.642;2023-06-19T12:39:14;26.20;99.90
3380;DHT22;1703;51.964;7.642;2023-06-19T12:41:42;26.10;99.90
3380;DHT22;1703;51.964;7.642;2023-06-19T12:44:09;26.20;99.90
3380;DHT22;1703;51.964;7.642;2023-06-19T12:46:36;26.30;99.90
3380;DHT22;1703;51.964;7.642;2023-06-19T12:49:03;26.40;99.90
3380;DHT22;1703;51.964;7.642;2023-06-19T12:51:30;26.50;99.90
3380;DHT22;1703;51.964;7.642;2023-06-19T12:53:58;26.60;99.90
3380;DHT22;1703;51.964;7.642;2023-06-19T12:56:25;26.50;99.90
3380;DHT22;1703;51.964;7.642;2023-06-19T12:58:51;26.40;99.90
3380;DHT22;1703;51.964;7.642;2023-06-19T13:01:18;26.40;99.90
3380;DHT22;1703;51.964;7.642;2023-06-19T13:03:45;26.50;99.90
3380;DHT22;1703;51.964;7.642;2023-06-19T13:06:12;26.40;99.90
3380;DHT22;1703;51.964;7.642;2023-06-19T13:08:39;26.40;99.90
3380;DHT22;1703;51.964;7.642;2023-06-19T13:11:07;26.50;99.90
3380;DHT22;1703;51.964;7.642;2023-06-19T13:13:34;26.60;99.90
3380;DHT22;1703;51.964;7.642;2023-06-19T13:16:01;26.80;99.90
3380;DHT22;1703;51.964;7.642;2023-06-19T13:18:27;26.80;99.90
3380;DHT22;1703;51.964;7.642;2023-06-19T13:20:55;26.70;99.90
3380;DHT22;1703;51.964;7.642;2023-06-19T13:23:22;26.80;99.90
3380;DHT22;1703;51.964;7.642;2023-06-19T13:25:48;26.80;99.90
3380;DHT22;1703;51.964;7.642;2023-06-19T13:28:16;26.90;99.90
3380;DHT22;1703;51.964;7.642;2023-06-19T13:30:43;27.20;99.90
3380;DHT22;1703;51.964;7.642;2023-06-19T13:33:10;27.40;99.90
3380;DHT22;1703;51.964;7.642;2023-06-19T13:35:37;27.30;99.90
3380;DHT22;1703;51.964;7.642;2023-06-19T13:38:04;27.20;99.90
3380;DHT22;1703;51.964;7.642;2023-06-19T13:40:31;27.40;99.90
3380;DHT22;1703;51.964;7.642;2023-06-19T13:42:58;27.50;99.90
3380;DHT22;1703;51.964;7.642;2023-06-19T13:45:27;27.60;99.90
3380;DHT22;1703;51.964;7.642;2023-06-19T13:47:54;27.80;99.90
3380;DHT22;1703;51.964;7.642;2023-06-19T13:50:21;28.30;99.90
3380;DHT22;1703;51.964;7.642;2023-06-19T13:52:49;28.70;99.90
3380;DHT22;1703;51.964;7.642;2023-06-19T13:55:16;28.80;99.90
3380;DHT22;1703;51.964;7.642;2023-06-19T13:57:44;29.80;99.90
3380;DHT22;1703;51.964;7.642;2023-06-19T14:00:12;30.80;99.90
3380;DHT22;1703;51.964;7.642;2023-06-19T14:02:41;31.10;99.90
3380;DHT22;1703;51.964;7.642;2023-06-19T14:05:08;31.80;99.90
3380;DHT22;1703;51.964;7.642;2023-06-19T14:07:35;32.50;98.70
3380;DHT22;1703;51.964;7.642;2023-06-19T14:10:04;32.80;96.60
3380;DHT22;1703;51.964;7.642;2023-06-19T14:12:31;32.90;96.20
3380;DHT22;1703;51.964;7.642;2023-06-19T14:14:58;32.00;95.50
3380;DHT22;1703;51.964;7.642;2023-06-19T14:17:25;31.30;95.30
3380;DHT22;1703;51.964;7.642;2023-06-19T14:19:53;30.50;96.00
3380;DHT22;1703;51.964;7.642;2023-06-19T14:22:21;30.20;97.30
3380;DHT22;1703;51.964;7.642;2023-06-19T14:24:47;29.90;98.10
3380;DHT22;1703;51.964;7.642;2023-06-19T14:27:14;29.70;97.90
3380;DHT22;1703;51.964;7.642;2023-06-19T14:29:41;29.60;98.90
3380;DHT22;1703;51.964;7.642;2023-06-19T14:32:08;29.50;98.70
3380;DHT22;1703;51.964;7.642;2023-06-19T14:34:35;29.40;99.20
3380;DHT22;1703;51.964;7.642;2023-06-19T14:37:03;28.90;99.20
3380;DHT22;1703;51.964;7.642;2023-06-19T14:39:30;28.60;99.40
3380;DHT22;1703;51.964;7.642;2023-06-19T14:41:56;28.40;99.90
3380;DHT22;1703;51.964;7.642;2023-06-19T14:44:23;28.40;99.90
3380;DHT22;1703;51.964;7.642;2023-06-19T14:46:50;28.30;99.90
3380;DHT22;1703;51.964;7.642;2023-06-19T14:49:17;28.20;99.90
3380;DHT22;1703;51.964;7.642;2023-06-19T14:51:44;27.90;99.90
3380;DHT22;1703;51.964;7.642;2023-06-19T14:54:12;27.80;99.90
3380;DHT22;1703;51.964;7.642;2023-06-19T14:56:45;27.70;99.90
3380;DHT22;1703;51.964;7.642;2023-06-19T14:59:13;27.60;99.90
3380;DHT22;1703;51.964;7.642;2023-06-19T15:01:40;27.70;99.90
3380;DHT22;1703;51.964;7.642;2023-06-19T15:04:07;27.80;99.90
3380;DHT22;1703;51.964;7.642;2023-06-19T15:06:34;27.80;99.90
3380;DHT22;1703;51.964;7.642;2023-06-19T15:09:00;28.10;99.90
3380;DHT22;1703;51.964;7.642;2023-06-19T15:11:29;28.20;99.90
3380;DHT22;1703;51.964;7.642;2023-06-19T15:13:56;28.40;99.90
3380;DHT22;1703;51.964;7.642;2023-06-19T15:16:23;28.50;99.90
3380;DHT22;1703;51.964;7.642;2023-06-19T15:18:51;28.40;99.90
3380;DHT22;1703;51.964;7.642;2023-06-19T15:21:18;28.50;99.90
3380;DHT22;1703;51.964;7.642;2023-06-19T15:23:45;28.40;99.90
3380;DHT22;1703;51.964;7.642;2023-06-19T15:26:12;28.20;99.90
3380;DHT22;1703;51.964;7.642;2023-06-19T15:28:40;28.30;99.90
3380;DHT22;1703;51.964;7.642;2023-06-19T15:31:09;28.30;99.90
3380;DHT22;1703;51.964;7.642;2023-06-19T15:33:36;28.20;99.90
3380;DHT22;1703;51.964;7.642;2023-06-19T15:36:03;28.00;99.80
3380;DHT22;1703;51.964;7.642;2023-06-19T15:38:30;28.00;99.90
3380;DHT22;1703;51.964;7.642;2023-06-19T15:40:56;28.20;99.90
3380;DHT22;1703;51.964;7.642;2023-06-19T15:43:23;28.00;99.90
3380;DHT22;1703;51.964;7.642;2023-06-19T15:45:55;27.90;99.90
3380;DHT22;1703;51.964;7.642;2023-06-19T15:48:22;27.80;99.90
3380;DHT22;1703;51.964;7.642;2023-06-19T15:50:49;27.60;99.90
3380;DHT22;1703;51.964;7.642;2023-06-19T15:53:16;27.50;99.90
3380;DHT22;1703;51.964;7.642;2023-06-19T15:55:42;27.60;99.90
3380;DHT22;1703;51.964;7.642;2023-06-19T15:58:09;27.70;99.90
3380;DHT22;1703;51.964;7.642;2023-06-19T16:00:36;28.00;99.90
3380;DHT22;1703;51.964;7.642;2023-06-19T16:03:05;28.10;99.90
3380;DHT22;1703;51.964;7.642;2023-06-19T16:05:32;28.30;99.90
3380;DHT22;1703;51.964;7.642;2023-06-19T16:07:58;28.40;99.90